Time;durP1;ratioP1;P1;durP2;ratioP2;P2;SDS_P1;SDS_P2;PMS_P1;PMS_P2;Temp;Humidity;BMP_temperature;BMP_pressure;BME280_temperature;BME280_humidity;BME280_pressure;Samples;Min_cycle;Max_cycle;Signal;HPM_P1;HPM_P2
2021/11/27 00:02:28;;;;;;;23.23;12.95;;;23.10;43.20;;;;;;6131036;28;82927;-67
2021/11/27 00:05:28;;;;;;;25.67;14.32;;;23.00;43.60;;;;;;6132430;28;83467;-68
2021/11/27 00:08:29;;;;;;;21.83;13.93;;;23.00;43.40;;;;;;6131728;28;83537;-67
2021/11/27 00:11:29;;;;;;;24.13;14.52;;;23.00;43.10;;;;;;6132238;28;83369;-67
2021/11/27 00:14:31;;;;;;;24.90;13.88;;;23.00;43.40;;;;;;6131776;28;83292;-67
2021/11/27 00:17:31;;;;;;;26.75;14.77;;;23.00;43.20;;;;;;6131902;28;82970;-67
2021/11/27 00:20:32;;;;;;;24.90;14.70;;;23.00;43.50;;;;;;6128871;28;85584;-67
2021/11/27 00:23:34;;;;;;;23.45;14.20;;;23.00;43.10;;;;;;6122880;28;84493;-67
2021/11/27 00:26:35;;;;;;;24.55;13.95;;;23.00;43.70;;;;;;6128885;28;83467;-67
2021/11/27 00:29:35;;;;;;;23.48;14.25;;;23.00;43.10;;;;;;6132621;28;84751;-66
2021/11/27 00:32:36;;;;;;;21.13;12.68;;;23.00;44.30;;;;;;6130404;28;86065;-67
2021/11/27 00:35:37;;;;;;;23.92;14.30;;;23.00;43.60;;;;;;6127826;28;86632;-67
2021/11/27 00:38:37;;;;;;;24.00;13.95;;;23.00;44.50;;;;;;6129750;28;84461;-68
2021/11/27 00:41:38;;;;;;;25.55;15.40;;;23.00;43.40;;;;;;6117336;28;83045;-68
2021/11/27 00:44:39;;;;;;;23.63;13.88;;;22.90;43.40;;;;;;6128537;28;83711;-68
2021/11/27 00:47:39;;;;;;;25.33;13.65;;;23.00;43.30;;;;;;6145182;28;84102;-70
2021/11/27 00:50:40;;;;;;;26.33;14.60;;;23.00;43.30;;;;;;6129688;28;82868;-70
2021/11/27 00:53:40;;;;;;;23.17;13.13;;;23.00;42.90;;;;;;6129410;28;86205;-69
2021/11/27 00:56:41;;;;;;;22.95;13.63;;;22.90;43.50;;;;;;6129099;28;84061;-69
2021/11/27 00:59:41;;;;;;;24.45;13.32;;;22.90;42.80;;;;;;6142660;28;84596;-70
2021/11/27 01:02:42;;;;;;;24.85;13.70;;;23.00;42.80;;;;;;6133781;28;83439;-70
2021/11/27 01:05:51;;;;;;;23.70;13.90;;;22.90;43.40;;;;;;6139041;28;86257;-70
2021/11/27 01:08:52;;;;;;;20.88;12.70;;;23.00;43.30;;;;;;6135050;28;85582;-68
2021/11/27 01:11:53;;;;;;;22.30;13.27;;;23.00;43.20;;;;;;6127485;28;82762;-69
2021/11/27 01:14:53;;;;;;;22.02;12.68;;;23.00;42.80;;;;;;6124977;28;85801;-68
2021/11/27 01:17:54;;;;;;;21.40;12.30;;;23.00;43.10;;;;;;6133794;28;84428;-68
2021/11/27 01:20:54;;;;;;;20.60;12.32;;;22.90;42.90;;;;;;6132040;28;84887;-66
2021/11/27 01:23:55;;;;;;;18.08;11.00;;;22.90;42.90;;;;;;6134523;28;82952;-67
2021/11/27 01:26:58;;;;;;;20.80;11.30;;;22.90;43.00;;;;;;6147490;28;86099;-67
2021/11/27 01:29:59;;;;;;;19.25;11.23;;;22.90;43.70;;;;;;6121743;28;83262;-68
2021/11/27 01:32:59;;;;;;;20.17;10.90;;;22.90;43.50;;;;;;6133894;28;83606;-69
2021/11/27 01:36:00;;;;;;;17.02;10.32;;;22.90;43.30;;;;;;6133129;28;86231;-69
2021/11/27 01:39:00;;;;;;;17.23;9.85;;;22.90;43.50;;;;;;6125794;28;84624;-68
2021/11/27 01:42:01;;;;;;;16.20;9.23;;;22.90;43.20;;;;;;6135540;28;84243;-68
2021/11/27 01:45:02;;;;;;;16.20;9.38;;;22.90;42.90;;;;;;6140954;28;82067;-67
2021/11/27 01:48:03;;;;;;;14.98;8.43;;;22.80;43.00;;;;;;6136137;28;83422;-67
2021/11/27 01:51:03;;;;;;;15.88;8.88;;;22.90;43.90;;;;;;6136266;28;83644;-68
2021/11/27 01:54:05;;;;;;;14.27;9.63;;;22.90;43.10;;;;;;6133970;28;80583;-67
2021/11/27 01:57:05;;;;;;;13.27;8.13;;;22.80;43.50;;;;;;6132530;28;82223;-67
2021/11/27 02:00:06;;;;;;;14.98;8.77;;;22.80;44.50;;;;;;6130772;28;83480;-69
2021/11/27 02:03:16;;;;;;;13.63;8.32;;;22.80;43.20;;;;;;6127733;28;82116;-68
2021/11/27 02:06:43;;;;;;;14.85;7.53;;;22.80;43.10;;;;;;6137630;28;80667;-67
2021/11/27 02:09:43;;;;;;;13.77;7.25;;;22.90;43.00;;;;;;6134757;28;82973;-68
2021/11/27 02:12:44;;;;;;;11.98;7.13;;;22.80;43.00;;;;;;6139553;28;83008;-68
2021/11/27 02:15:46;;;;;;;13.52;7.70;;;22.80;43.00;;;;;;6133868;28;82036;-68
2021/11/27 02:18:47;;;;;;;10.18;6.78;;;22.80;43.00;;;;;;6130535;28;80256;-68
2021/11/27 02:21:47;;;;;;;9.30;6.28;;;22.80;42.80;;;;;;6138076;28;81022;-66
2021/11/27 02:24:48;;;;;;;10.95;6.78;;;22.80;42.80;;;;;;6153708;28;83432;-67
2021/11/27 02:27:49;;;;;;;8.25;5.88;;;22.80;42.90;;;;;;6133286;28;80542;-68
2021/11/27 02:30:50;;;;;;;10.32;6.25;;;22.80;42.80;;;;;;6114370;28;82811;-67
2021/11/27 02:33:51;;;;;;;9.70;6.00;;;22.80;43.20;;;;;;6110980;28;83038;-67
2021/11/27 02:36:52;;;;;;;9.95;5.90;;;22.80;43.20;;;;;;6109614;28;83498;-67
2021/11/27 02:39:52;;;;;;;11.40;6.63;;;22.80;42.50;;;;;;6138708;28;83312;-68
2021/11/27 02:42:55;;;;;;;9.52;5.78;;;22.80;42.50;;;;;;6150551;28;83012;-68
2021/11/27 02:45:56;;;;;;;10.48;6.55;;;22.80;43.10;;;;;;6134145;28;81964;-68
2021/11/27 02:48:56;;;;;;;7.80;5.53;;;22.90;42.70;;;;;;6122475;28;83126;-66
2021/11/27 02:51:57;;;;;;;9.02;5.95;;;22.80;43.70;;;;;;6132589;28;82421;-68
2021/11/27 02:54:58;;;;;;;8.85;5.53;;;22.80;42.80;;;;;;6132250;28;83224;-68
2021/11/27 02:57:58;;;;;;;10.52;6.25;;;22.80;43.60;;;;;;6153053;28;83523;-67
2021/11/27 03:00:59;;;;;;;8.60;5.32;;;22.80;43.20;;;;;;6151158;28;83276;-67
2021/11/27 03:04:01;;;;;;;7.95;5.35;;;22.80;43.50;;;;;;6124270;28;81840;-67
2021/11/27 03:07:01;;;;;;;8.25;4.95;;;22.80;42.90;;;;;;6133706;28;82768;-68
2021/11/27 03:10:02;;;;;;;8.77;5.40;;;22.80;42.50;;;;;;6150027;28;82124;-67
2021/11/27 03:13:02;;;;;;;9.45;5.00;;;22.80;42.00;;;;;;6137029;28;84681;-68
2021/11/27 03:16:03;;;;;;;7.75;5.10;;;22.80;41.80;;;;;;6149277;28;82945;-67
2021/11/27 03:19:03;;;;;;;7.90;5.20;;;22.80;41.60;;;;;;6132177;28;83388;-68
2021/11/27 03:22:04;;;;;;;9.40;5.85;;;22.80;41.40;;;;;;6134293;28;82081;-67
2021/11/27 03:25:10;;;;;;;7.90;4.97;;;22.80;41.30;;;;;;6133297;28;83626;-68
2021/11/27 03:28:10;;;;;;;7.20;5.18;;;22.90;41.20;;;;;;6138339;28;83159;-67
2021/11/27 03:31:11;;;;;;;8.95;5.63;;;22.90;41.20;;;;;;6129830;28;83398;-68
2021/11/27 03:34:12;;;;;;;8.85;5.70;;;22.90;41.10;;;;;;6126004;28;81656;-67
2021/11/27 03:37:12;;;;;;;7.45;4.90;;;23.00;41.00;;;;;;6125506;28;83783;-68
2021/11/27 03:40:13;;;;;;;9.75;5.80;;;22.90;40.90;;;;;;6148867;28;83489;-68
2021/11/27 03:43:13;;;;;;;8.50;5.82;;;23.00;40.60;;;;;;6133320;28;83519;-68
2021/11/27 03:46:14;;;;;;;8.68;5.45;;;23.00;40.50;;;;;;6149107;28;80448;-68
2021/11/27 03:49:15;;;;;;;9.35;6.13;;;23.00;40.40;;;;;;6131282;28;82748;-68
2021/11/27 03:52:16;;;;;;;7.75;5.53;;;23.10;40.50;;;;;;6133052;28;83677;-67
2021/11/27 03:55:18;;;;;;;9.35;6.00;;;23.10;40.20;;;;;;6128282;28;83396;-67
2021/11/27 03:58:19;;;;;;;8.38;5.82;;;23.10;40.40;;;;;;6133123;28;83765;-67
2021/11/27 04:01:19;;;;;;;8.00;5.40;;;23.10;40.40;;;;;;6135485;28;80356;-68
2021/11/27 04:04:21;;;;;;;7.97;5.90;;;23.10;41.00;;;;;;6130344;28;82857;-67
2021/11/27 04:07:22;;;;;;;8.65;5.85;;;23.10;40.20;;;;;;6130914;28;83168;-67
2021/11/27 04:10:23;;;;;;;7.80;5.18;;;23.10;40.20;;;;;;6132456;28;83338;-68
2021/11/27 04:13:23;;;;;;;9.45;5.65;;;23.10;40.00;;;;;;6134019;28;80462;-68
2021/11/27 04:16:24;;;;;;;9.50;6.47;;;23.10;40.00;;;;;;6133243;28;83121;-68
2021/11/27 04:19:24;;;;;;;7.55;5.70;;;23.20;40.00;;;;;;6134285;28;83675;-67
2021/11/27 04:22:25;;;;;;;8.48;5.75;;;23.10;40.20;;;;;;6133625;28;82146;-67
2021/11/27 04:25:32;;;;;;;7.95;5.82;;;23.10;40.00;;;;;;6128569;28;82388;-67
2021/11/27 04:28:33;;;;;;;7.05;5.15;;;23.20;40.00;;;;;;6145680;28;80872;-69
2021/11/27 04:31:34;;;;;;;8.13;5.97;;;23.20;39.90;;;;;;6130546;28;83333;-69
2021/11/27 04:34:36;;;;;;;8.30;5.88;;;23.20;39.90;;;;;;6127568;28;81733;-68
2021/11/27 04:37:37;;;;;;;9.35;5.57;;;23.20;39.90;;;;;;6130326;28;80324;-68
2021/11/27 04:40:37;;;;;;;8.43;5.80;;;23.20;39.90;;;;;;6134607;28;83309;-67
2021/11/27 04:43:38;;;;;;;9.02;5.55;;;23.20;39.90;;;;;;6131031;28;83171;-67
2021/11/27 04:46:38;;;;;;;8.05;5.78;;;23.20;39.90;;;;;;6138490;28;80805;-68
2021/11/27 04:49:39;;;;;;;6.70;5.10;;;23.20;39.90;;;;;;6149015;28;83381;-70
2021/11/27 04:52:40;;;;;;;8.27;5.40;;;23.20;40.00;;;;;;6138540;28;83591;-70
2021/11/27 04:55:40;;;;;;;8.25;5.55;;;23.30;40.00;;;;;;6135925;28;83479;-69
2021/11/27 04:58:45;;;;;;;7.88;5.90;;;23.30;39.80;;;;;;6131843;28;81489;-68
2021/11/27 05:01:46;;;;;;;8.18;5.97;;;23.30;39.60;;;;;;6136347;28;82041;-67
2021/11/27 05:04:47;;;;;;;8.48;5.55;;;23.30;39.60;;;;;;6130179;28;83306;-67
2021/11/27 05:07:48;;;;;;;12.15;6.15;;;23.30;40.70;;;;;;6136347;28;81399;-66
2021/11/27 05:10:49;;;;;;;7.30;5.13;;;23.40;40.90;;;;;;6136351;28;82995;-67
2021/11/27 05:13:49;;;;;;;7.63;5.72;;;23.40;40.70;;;;;;6135066;28;80399;-68
2021/11/27 05:16:50;;;;;;;6.32;5.30;;;23.40;41.00;;;;;;6128137;28;81428;-68
2021/11/27 05:19:50;;;;;;;6.93;5.00;;;23.40;40.70;;;;;;6130616;28;83477;-68
2021/11/27 05:22:56;;;;;;;6.37;4.70;;;23.40;41.10;;;;;;6136521;28;83374;-68
2021/11/27 05:25:57;;;;;;;9.70;5.18;;;23.50;40.60;;;;;;6139428;28;83825;-68
2021/11/27 05:29:16;;;;;;;6.38;5.03;;;23.50;40.70;;;;;;6135837;28;80360;-68
2021/11/27 05:35:39;;;;;;;34.08;16.95;;;23.50;40.30;;;;;;6135925;28;83374;-69
2021/11/27 05:38:40;;;;;;;99.85;47.05;;;23.50;40.60;;;;;;6133066;28;84034;-69
2021/11/27 05:41:41;;;;;;;255.07;114.90;;;23.50;40.50;;;;;;6133600;28;83256;-68
2021/11/27 05:44:42;;;;;;;185.20;85.95;;;23.50;40.70;;;;;;6127193;28;86081;-70
2021/11/27 05:47:43;;;;;;;163.35;77.55;;;23.60;40.60;;;;;;6130546;28;84370;-68
2021/11/27 05:50:48;;;;;;;154.63;67.95;;;23.60;40.70;;;;;;6132146;28;85039;-68
2021/11/27 05:53:48;;;;;;;124.05;58.75;;;23.60;40.50;;;;;;6135015;28;84315;-69
2021/11/27 05:56:49;;;;;;;111.50;53.50;;;23.60;40.70;;;;;;6125019;28;83494;-67
2021/11/27 05:59:49;;;;;;;100.28;46.58;;;23.60;40.60;;;;;;6130092;28;83086;-70
2021/11/27 06:02:50;;;;;;;91.28;43.50;;;23.60;40.50;;;;;;6121082;28;84472;-68
2021/11/27 06:05:50;;;;;;;86.82;40.22;;;23.60;40.60;;;;;;6124645;28;83801;-69
2021/11/27 06:08:51;;;;;;;75.50;35.83;;;23.60;40.90;;;;;;6129165;28;84214;-69
2021/11/27 06:11:52;;;;;;;75.28;34.42;;;23.60;41.60;;;;;;6124692;28;83276;-67
2021/11/27 06:14:52;;;;;;;66.20;29.30;;;23.50;40.90;;;;;;6106324;28;83891;-67
2021/11/27 06:17:53;;;;;;;53.45;24.50;;;23.50;42.20;;;;;;6113406;28;85797;-68
2021/11/27 06:20:54;;;;;;;33.42;18.05;;;23.50;43.20;;;;;;6128389;28;84343;-67
2021/11/27 06:23:54;;;;;;;30.10;15.00;;;23.40;44.30;;;;;;6143779;28;84450;-68
2021/11/27 06:26:55;;;;;;;27.98;12.50;;;23.30;44.90;;;;;;6128228;28;84335;-67
2021/11/27 06:29:56;;;;;;;19.35;10.52;;;23.30;46.00;;;;;;6127784;28;84017;-69
2021/11/27 06:32:56;;;;;;;20.70;9.88;;;23.20;46.40;;;;;;6125663;28;86312;-67
2021/11/27 06:35:57;;;;;;;15.02;9.13;;;23.20;47.10;;;;;;6129735;28;83159;-68
2021/11/27 06:38:57;;;;;;;12.35;7.72;;;23.20;47.50;;;;;;6142634;28;80366;-68
2021/11/27 06:41:58;;;;;;;14.35;8.38;;;23.10;47.90;;;;;;6130529;28;81065;-68
2021/11/27 06:45:13;;;;;;;9.40;6.07;;;23.10;48.50;;;;;;6130225;28;83128;-66
2021/11/27 06:48:32;;;;;;;11.48;5.53;;;23.00;49.10;;;;;;6126001;28;80731;-68
2021/11/27 06:51:33;;;;;;;9.07;5.25;;;23.00;49.70;;;;;;6128614;28;81794;-69
2021/11/27 06:54:33;;;;;;;9.30;4.60;;;23.00;49.80;;;;;;6139794;28;83283;-67
2021/11/27 06:57:34;;;;;;;7.97;4.88;;;23.00;50.10;;;;;;6124368;28;82138;-67
2021/11/27 07:00:34;;;;;;;9.52;4.90;;;23.00;50.60;;;;;;6127007;28;80317;-67
2021/11/27 07:04:08;;;;;;;7.55;4.43;;;23.00;50.70;;;;;;6132002;28;82278;-67
2021/11/27 07:07:20;;;;;;;12.80;4.60;;;23.00;50.80;;;;;;6126887;28;81098;-69
2021/11/27 07:10:27;;;;;;;6.55;4.05;;;23.00;51.70;;;;;;6128495;28;82065;-67
2021/11/27 07:13:50;;;;;;;6.03;3.65;;;23.00;51.20;;;;;;6148119;28;82335;-67
2021/11/27 07:16:50;;;;;;;8.50;4.38;;;23.00;51.50;;;;;;6134611;28;81890;-67
2021/11/27 07:19:51;;;;;;;6.80;4.32;;;23.10;50.70;;;;;;6127665;28;83038;-67
2021/11/27 07:22:51;;;;;;;6.72;4.28;;;23.10;50.20;;;;;;6144551;28;83140;-67
2021/11/27 07:25:52;;;;;;;10.38;4.43;;;23.20;49.80;;;;;;6146397;28;82741;-70
2021/11/27 07:28:59;;;;;;;6.13;3.70;;;23.20;49.30;;;;;;6130875;28;80873;-67
2021/11/27 07:31:59;;;;;;;6.50;4.50;;;23.20;49.40;;;;;;6132958;28;80754;-68
2021/11/27 07:35:00;;;;;;;9.20;4.90;;;23.20;48.70;;;;;;6132235;28;80858;-67
2021/11/27 07:38:00;;;;;;;6.78;4.13;;;23.20;48.70;;;;;;6142291;28;82514;-67
2021/11/27 07:41:01;;;;;;;5.43;4.22;;;23.20;48.90;;;;;;6125285;28;80845;-66
2021/11/27 07:44:01;;;;;;;9.77;4.07;;;23.20;49.00;;;;;;6124540;28;83353;-69
2021/11/27 07:47:20;;;;;;;7.10;3.67;;;23.20;49.20;;;;;;6124744;28;81604;-66
2021/11/27 07:50:39;;;;;;;6.63;4.38;;;23.20;48.80;;;;;;6125681;28;84632;-68
2021/11/27 07:53:52;;;;;;;9.13;4.57;;;23.20;48.40;;;;;;6132842;28;82238;-67
2021/11/27 07:56:53;;;;;;;7.38;5.07;;;23.20;48.40;;;;;;6127260;28;81155;-67
2021/11/27 07:59:53;;;;;;;7.00;4.40;;;23.20;48.10;;;;;;6133952;28;80825;-67
2021/11/27 08:02:54;;;;;;;6.57;4.25;;;23.20;47.70;;;;;;6129481;28;80584;-68
2021/11/27 08:05:54;;;;;;;8.23;4.70;;;23.10;47.60;;;;;;6131231;28;80481;-67
2021/11/27 08:08:55;;;;;;;7.30;4.90;;;23.10;47.30;;;;;;6123617;28;81277;-68
2021/11/27 08:11:57;;;;;;;5.78;3.97;;;23.10;47.50;;;;;;6110843;28;81024;-66
2021/11/27 08:14:57;;;;;;;6.03;4.03;;;23.10;47.70;;;;;;6124562;28;81094;-65
2021/11/27 08:17:58;;;;;;;7.72;4.85;;;23.10;47.60;;;;;;6124575;28;81982;-66
2021/11/27 08:21:00;;;;;;;7.30;4.20;;;23.00;47.20;;;;;;6124412;28;80992;-64
2021/11/27 08:24:01;;;;;;;6.65;4.53;;;23.10;48.30;;;;;;6122756;28;81439;-64
2021/11/27 08:27:02;;;;;;;6.93;4.55;;;23.10;47.70;;;;;;6129775;28;80316;-66
2021/11/27 08:30:04;;;;;;;8.98;4.90;;;23.00;47.40;;;;;;6127926;28;80461;-66
2021/11/27 08:33:04;;;;;;;7.35;4.45;;;23.10;47.80;;;;;;6126174;28;81014;-67
2021/11/27 08:36:05;;;;;;;8.27;4.15;;;23.00;47.80;;;;;;6126151;28;81471;-65
2021/11/27 08:39:05;;;;;;;7.18;4.63;;;23.00;48.90;;;;;;6124138;28;80824;-65
2021/11/27 08:42:06;;;;;;;13.25;4.80;;;23.00;48.50;;;;;;6130173;28;80392;-66
2021/11/27 08:45:06;;;;;;;15.32;4.80;;;23.10;48.60;;;;;;6128803;28;80717;-65
2021/11/27 08:48:07;;;;;;;6.72;4.45;;;23.10;48.00;;;;;;6133286;28;81707;-64
2021/11/27 08:51:07;;;;;;;7.50;4.82;;;23.00;47.70;;;;;;6123136;28;80915;-71
2021/11/27 08:54:08;;;;;;;11.85;4.45;;;23.00;47.40;;;;;;6133019;28;80192;-69
2021/11/27 08:57:08;;;;;;;22.10;5.07;;;23.00;47.70;;;;;;6126361;28;80684;-69
2021/11/27 09:00:10;;;;;;;9.40;4.68;;;23.00;47.70;;;;;;6130479;28;81191;-69
2021/11/27 09:03:11;;;;;;;18.65;4.90;;;23.10;47.80;;;;;;6130519;28;80955;-71
2021/11/27 09:06:12;;;;;;;19.65;4.57;;;23.10;47.60;;;;;;6133310;28;80249;-70
2021/11/27 09:09:12;;;;;;;11.93;4.75;;;23.10;48.40;;;;;;6131104;28;80722;-69
2021/11/27 09:12:13;;;;;;;6.53;4.47;;;23.10;48.70;;;;;;6127322;28;80477;-74
2021/11/27 09:15:13;;;;;;;11.40;4.60;;;23.00;48.20;;;;;;6133718;28;80441;-70
2021/11/27 09:18:14;;;;;;;9.70;4.70;;;23.10;48.60;;;;;;6124369;28;81113;-68
2021/11/27 09:21:14;;;;;;;6.72;4.20;;;23.10;48.00;;;;;;6150735;28;81447;-69
2021/11/27 09:24:15;;;;;;;10.90;4.88;;;23.10;48.10;;;;;;6137822;28;81233;-69
2021/11/27 09:27:15;;;;;;;6.20;4.25;;;23.10;48.20;;;;;;6133222;28;81714;-70
2021/11/27 09:30:16;;;;;;;15.10;8.55;;;23.20;48.20;;;;;;6132950;28;81623;-72
2021/11/27 09:33:16;;;;;;;116.07;51.40;;;23.30;48.40;;;;;;6135535;28;80976;-70
2021/11/27 09:36:19;;;;;;;178.85;90.13;;;23.40;48.30;;;;;;6131277;28;83204;-69
2021/11/27 09:39:22;;;;;;;233.40;112.70;;;23.40;48.30;;;;;;6134425;28;83730;-68
2021/11/27 09:42:23;;;;;;;219.65;105.80;;;23.50;48.20;;;;;;6123116;28;87399;-74
2021/11/27 09:45:24;;;;;;;190.80;92.28;;;23.50;48.30;;;;;;6122605;28;86467;-69
2021/11/27 09:48:24;;;;;;;176.27;82.95;;;23.60;48.40;;;;;;6129553;28;86378;-69
2021/11/27 09:51:25;;;;;;;131.98;63.05;;;23.60;47.90;;;;;;6131470;28;83860;-69
2021/11/27 09:54:25;;;;;;;122.40;59.17;;;23.60;48.20;;;;;;6125256;28;83650;-70
2021/11/27 09:57:26;;;;;;;91.57;45.80;;;23.60;47.50;;;;;;6126594;28;83423;-71
2021/11/27 10:00:26;;;;;;;81.28;38.53;;;23.60;47.20;;;;;;6123960;28;84898;-72
2021/11/27 10:03:28;;;;;;;70.63;34.50;;;23.60;46.40;;;;;;6137078;28;83619;-74
2021/11/27 10:06:29;;;;;;;50.15;25.88;;;23.70;44.80;;;;;;6145586;28;83220;-72
2021/11/27 10:09:29;;;;;;;42.78;23.13;;;23.80;44.30;;;;;;6137144;28;83206;-72
2021/11/27 10:12:30;;;;;;;35.30;18.88;;;23.80;43.60;;;;;;6128901;28;83632;-78
2021/11/27 10:15:30;;;;;;;31.77;17.40;;;23.90;42.80;;;;;;6132678;28;83571;-75
2021/11/27 10:18:31;;;;;;;26.08;14.88;;;23.90;42.30;;;;;;6132398;28;83107;-76
2021/11/27 10:21:32;;;;;;;24.73;14.35;;;24.00;42.70;;;;;;6135146;28;83969;-75
2021/11/27 10:24:32;;;;;;;29.25;14.48;;;24.00;41.80;;;;;;6131516;28;84297;-68
2021/11/27 10:27:33;;;;;;;32.75;13.82;;;24.00;41.00;;;;;;6122038;28;89093;-72
2021/11/27 10:30:33;;;;;;;21.27;11.55;;;24.10;41.40;;;;;;6130258;28;82845;-71
2021/11/27 10:33:37;;;;;;;24.38;11.55;;;24.10;41.40;;;;;;6128785;28;84157;-72
2021/11/27 10:36:37;;;;;;;17.48;9.98;;;24.10;41.80;;;;;;6128541;28;84012;-72
2021/11/27 10:39:38;;;;;;;17.85;9.70;;;24.10;42.40;;;;;;6125837;28;83499;-70
2021/11/27 10:42:39;;;;;;;18.38;10.05;;;24.10;42.30;;;;;;6148133;28;84274;-70
2021/11/27 10:45:41;;;;;;;17.67;9.73;;;24.10;42.00;;;;;;6133185;28;83482;-70
2021/11/27 10:48:42;;;;;;;20.83;9.98;;;24.10;42.30;;;;;;6132914;28;82958;-71
2021/11/27 10:51:44;;;;;;;16.50;9.18;;;24.00;42.70;;;;;;6131975;28;82866;-70
2021/11/27 10:54:44;;;;;;;211.98;93.85;;;24.10;42.60;;;;;;6127119;28;84692;-70
2021/11/27 10:57:45;;;;;;;273.27;116.25;;;24.10;43.00;;;;;;6128422;28;83202;-70
2021/11/27 11:00:45;;;;;;;386.50;162.18;;;24.10;42.90;;;;;;6128230;28;85695;-73
2021/11/27 11:03:47;;;;;;;324.10;132.07;;;24.30;43.40;;;;;;6125327;28;86506;-71
2021/11/27 11:06:48;;;;;;;242.75;104.90;;;24.30;43.80;;;;;;6127417;28;86537;-71
2021/11/27 11:09:48;;;;;;;210.82;92.32;;;24.30;43.70;;;;;;6122608;28;86542;-69
2021/11/27 11:12:50;;;;;;;192.32;80.88;;;24.40;43.30;;;;;;6121806;28;84511;-69
2021/11/27 11:15:50;;;;;;;190.55;78.07;;;24.40;43.00;;;;;;6125265;28;83687;-69
2021/11/27 11:18:52;;;;;;;170.85;72.10;;;24.50;43.40;;;;;;6124973;28;84180;-71
2021/11/27 11:21:52;;;;;;;151.00;62.85;;;24.60;43.00;;;;;;6129097;28;83360;-72
2021/11/27 11:24:53;;;;;;;126.82;58.80;;;24.60;43.30;;;;;;6130323;28;84175;-71
2021/11/27 11:27:53;;;;;;;118.45;53.45;;;24.70;44.00;;;;;;6128505;28;85445;-72
2021/11/27 11:31:00;;;;;;;104.47;48.25;;;24.70;42.90;;;;;;6128920;28;83211;-71
2021/11/27 11:34:00;;;;;;;99.82;45.25;;;24.70;42.10;;;;;;6127583;28;84356;-70
2021/11/27 11:37:01;;;;;;;93.47;40.97;;;24.60;42.20;;;;;;6122187;28;83049;-70
2021/11/27 11:40:01;;;;;;;78.32;36.15;;;24.60;42.40;;;;;;6126369;28;84032;-71
2021/11/27 11:43:02;;;;;;;81.95;35.33;;;24.50;42.20;;;;;;6124996;28;84747;-70
2021/11/27 11:46:02;;;;;;;73.93;33.30;;;24.40;42.70;;;;;;6119592;28;83989;-71
2021/11/27 11:49:03;;;;;;;68.80;31.85;;;24.40;43.10;;;;;;6118700;28;85719;-71
2021/11/27 11:52:03;;;;;;;57.08;26.65;;;24.30;43.10;;;;;;6123520;28;84505;-70
2021/11/27 11:55:04;;;;;;;49.33;22.77;;;24.30;42.70;;;;;;6126002;28;83264;-70
2021/11/27 11:58:05;;;;;;;61.05;24.23;;;24.30;43.00;;;;;;6125376;28;83125;-69
2021/11/27 12:01:06;;;;;;;51.05;23.67;;;24.20;42.80;;;;;;6124415;28;83530;-69
2021/11/27 12:04:06;;;;;;;44.90;22.17;;;24.20;43.10;;;;;;6120225;28;84434;-69
2021/11/27 12:07:07;;;;;;;43.15;19.30;;;24.10;43.90;;;;;;6120794;28;85475;-68
2021/11/27 12:10:07;;;;;;;41.83;19.00;;;24.10;43.50;;;;;;6125498;28;83171;-67
2021/11/27 12:13:08;;;;;;;41.70;19.48;;;24.10;43.90;;;;;;6120449;28;90269;-70
2021/11/27 12:16:09;;;;;;;35.22;17.65;;;24.00;44.30;;;;;;6125634;28;83545;-71
2021/11/27 12:19:09;;;;;;;36.90;17.20;;;24.00;44.70;;;;;;6120740;28;83084;-67
2021/11/27 12:22:10;;;;;;;29.65;15.35;;;24.00;45.10;;;;;;6125151;28;83492;-65
2021/11/27 12:25:10;;;;;;;29.58;15.30;;;23.90;45.10;;;;;;6128551;28;83486;-66
2021/11/27 12:28:12;;;;;;;27.98;13.88;;;23.90;44.80;;;;;;6126244;28;84567;-66
2021/11/27 12:31:12;;;;;;;23.92;13.38;;;23.90;45.20;;;;;;6125611;28;85299;-68
2021/11/27 12:34:13;;;;;;;21.25;12.07;;;23.80;46.00;;;;;;6128311;28;83129;-68
2021/11/27 12:37:13;;;;;;;24.58;11.95;;;23.70;46.40;;;;;;6127388;28;84292;-67
2021/11/27 12:40:14;;;;;;;26.85;11.95;;;23.70;46.90;;;;;;6127651;28;84348;-68
2021/11/27 12:43:14;;;;;;;20.58;11.80;;;23.70;46.60;;;;;;6128687;28;83167;-68
2021/11/27 12:46:15;;;;;;;20.25;10.02;;;23.70;46.60;;;;;;6130924;28;83540;-67
2021/11/27 12:49:15;;;;;;;16.08;9.85;;;23.70;47.20;;;;;;6131003;28;84648;-67
2021/11/27 12:52:16;;;;;;;17.33;8.82;;;23.70;47.20;;;;;;6129469;28;82897;-68
2021/11/27 12:55:16;;;;;;;18.35;9.40;;;23.70;47.20;;;;;;6135164;28;80923;-70
2021/11/27 12:58:17;;;;;;;16.52;9.38;;;23.70;47.20;;;;;;6131628;28;80616;-74
2021/11/27 13:01:17;;;;;;;14.57;8.80;;;23.70;47.70;;;;;;6133816;28;81548;-70
2021/11/27 13:04:19;;;;;;;13.27;8.15;;;23.70;47.80;;;;;;6131361;28;81390;-70
2021/11/27 13:07:22;;;;;;;16.33;8.68;;;23.60;47.50;;;;;;6130316;28;81318;-69
2021/11/27 13:10:22;;;;;;;15.57;8.52;;;23.60;47.60;;;;;;6134799;28;80618;-68
2021/11/27 13:13:24;;;;;;;12.13;7.22;;;23.60;48.10;;;;;;6130554;28;80825;-70
2021/11/27 13:16:25;;;;;;;15.30;7.10;;;23.60;48.30;;;;;;6136308;28;80332;-70
2021/11/27 13:19:25;;;;;;;14.40;7.68;;;23.60;48.00;;;;;;6136413;28;80661;-69
2021/11/27 13:22:26;;;;;;;14.77;8.20;;;23.60;47.80;;;;;;6137252;28;80635;-69
2021/11/27 13:25:27;;;;;;;13.95;7.13;;;23.60;47.90;;;;;;6138448;28;80375;-69
2021/11/27 13:28:27;;;;;;;14.13;7.93;;;23.60;48.20;;;;;;6134887;28;80990;-69
2021/11/27 13:31:28;;;;;;;17.02;7.68;;;23.60;47.60;;;;;;6125952;28;80884;-69
2021/11/27 13:34:28;;;;;;;11.40;7.10;;;23.50;48.10;;;;;;6136181;28;81532;-69
2021/11/27 13:37:29;;;;;;;12.18;7.55;;;23.50;47.90;;;;;;6149475;28;80726;-72
2021/11/27 13:40:29;;;;;;;13.27;7.22;;;23.50;47.80;;;;;;6129489;28;81505;-69
2021/11/27 13:43:30;;;;;;;11.10;7.20;;;23.50;47.30;;;;;;6131374;28;80392;-68
2021/11/27 13:46:30;;;;;;;11.63;6.72;;;23.50;47.70;;;;;;6131117;28;83543;-68
2021/11/27 13:49:31;;;;;;;10.73;6.18;;;23.50;47.60;;;;;;6133655;28;82298;-68
2021/11/27 13:52:31;;;;;;;9.65;5.63;;;23.40;47.40;;;;;;6134253;28;80727;-68
2021/11/27 13:55:32;;;;;;;8.85;5.57;;;23.40;47.70;;;;;;6133335;28;80483;-67
2021/11/27 13:58:32;;;;;;;12.95;6.35;;;23.40;48.00;;;;;;6136710;28;80924;-72
2021/11/27 14:01:33;;;;;;;13.23;5.72;;;23.40;47.60;;;;;;6136762;28;82783;-72
2021/11/27 14:04:34;;;;;;;9.95;5.75;;;23.40;47.80;;;;;;6133416;28;81472;-75
2021/11/27 14:07:35;;;;;;;8.88;5.65;;;23.40;48.00;;;;;;6135042;28;81656;-71
2021/11/27 14:10:35;;;;;;;76.90;40.88;;;23.40;47.80;;;;;;6131196;28;80507;-71
2021/11/27 14:13:36;;;;;;;122.47;61.13;;;23.40;47.70;;;;;;6132598;28;83295;-72
2021/11/27 14:16:37;;;;;;;134.00;70.13;;;23.40;48.20;;;;;;6135445;28;85792;-73
2021/11/27 14:19:38;;;;;;;110.82;56.35;;;23.40;47.60;;;;;;6125948;28;82871;-71
2021/11/27 14:22:39;;;;;;;94.88;49.55;;;23.40;47.80;;;;;;6132300;28;83364;-72
2021/11/27 14:25:39;;;;;;;84.20;42.42;;;23.40;48.20;;;;;;6132021;28;83423;-72
2021/11/27 14:28:40;;;;;;;70.55;38.38;;;23.40;48.20;;;;;;6135437;28;86094;-72
2021/11/27 14:31:40;;;;;;;72.25;36.22;;;23.50;48.20;;;;;;6134072;28;83472;-74
2021/11/27 14:34:41;;;;;;;65.00;34.50;;;23.50;47.60;;;;;;6128171;28;82928;-73
2021/11/27 14:37:42;;;;;;;57.17;30.98;;;23.50;48.00;;;;;;6152336;28;83074;-72
2021/11/27 14:40:43;;;;;;;49.83;26.70;;;23.50;48.50;;;;;;6134952;28;84307;-75
2021/11/27 14:43:43;;;;;;;46.67;24.25;;;23.50;47.90;;;;;;6130834;28;83330;-71
2021/11/27 14:46:44;;;;;;;43.22;23.85;;;23.50;48.00;;;;;;6125428;28;82948;-73
2021/11/27 14:49:47;;;;;;;41.88;22.25;;;23.50;48.60;;;;;;6128076;28;83056;-72
2021/11/27 14:52:48;;;;;;;41.00;20.77;;;23.50;47.80;;;;;;6131956;28;83768;-71
2021/11/27 14:55:48;;;;;;;35.40;18.08;;;23.60;47.70;;;;;;6133680;28;83238;-72
2021/11/27 14:58:49;;;;;;;34.88;19.30;;;23.60;47.70;;;;;;6132430;28;83245;-70
2021/11/27 15:01:50;;;;;;;31.83;17.73;;;23.60;47.50;;;;;;6131378;28;83919;-71
2021/11/27 15:04:50;;;;;;;29.42;16.17;;;23.60;47.70;;;;;;6130702;28;83582;-70
2021/11/27 15:07:51;;;;;;;31.27;16.65;;;23.60;47.50;;;;;;6126853;28;82946;-71
2021/11/27 15:10:53;;;;;;;29.00;15.48;;;23.60;47.60;;;;;;6129749;28;83269;-71
2021/11/27 15:13:53;;;;;;;27.38;15.18;;;23.60;47.30;;;;;;6127581;28;84630;-73
2021/11/27 15:16:54;;;;;;;26.25;14.77;;;23.60;47.40;;;;;;6132875;28;82989;-71
2021/11/27 15:19:54;;;;;;;27.10;14.48;;;23.60;47.50;;;;;;6132133;28;83071;-70
2021/11/27 15:22:55;;;;;;;28.02;14.80;;;23.50;47.20;;;;;;6128645;28;83707;-68
2021/11/27 15:25:55;;;;;;;22.20;13.75;;;23.50;47.30;;;;;;6122382;28;83972;-72
2021/11/27 15:28:56;;;;;;;23.38;12.05;;;23.50;47.50;;;;;;6130324;28;83053;-70
2021/11/27 15:32:00;;;;;;;23.25;12.20;;;23.60;47.50;;;;;;6128867;28;83004;-72